El'ton, Russia
Current Conditions -  °F | °C
As of 3:00 AM on Wednesday 22 Oct 2014 (Local Time) from URWW Reporting Station
Haze Haze  
Wind Chill: 50°   Ceiling: 500
Heat Index: 50°   Visibility: 2.5mi
Dew Point: 50°   Wind: 18mph
Humidity: 100%   Direction: 250°WSW
Pressure: 29.62"   Gusts: NA
Location:  49.12°N, 46.56°E
Report Text: URWW 220000Z 25008MPS 4000 BR BKN005 OVC100 10/10 Q1003 TEMPO0400 FG OVC002 RMK SC056
Loading
Personal Weather Stations






























Interactive Weather Map
Tropical Storm Tracking
New forecast layout! Learn more

10-Day Weather Forecast

Advertisements
Track Severe Weather on mobile